sensor_id;sensor_type;location;lat;lon;timestamp;P1;durP1;ratioP1;P2;durP2;ratioP2
9559;SDS011;4818;50.860;4.648;2023-05-18T00:01:16;7.45;;;1.85;;
9559;SDS011;4818;50.860;4.648;2023-05-18T00:03:43;12.48;;;1.60;;
9559;SDS011;4818;50.860;4.648;2023-05-18T00:06:09;9.02;;;1.50;;
9559;SDS011;4818;50.860;4.648;2023-05-18T00:08:36;11.45;;;1.83;;
9559;SDS011;4818;50.860;4.648;2023-05-18T00:11:03;12.30;;;2.42;;
9559;SDS011;4818;50.860;4.648;2023-05-18T00:13:29;6.97;;;1.50;;
9559;SDS011;4818;50.860;4.648;2023-05-18T00:15:56;12.43;;;2.28;;
9559;SDS011;4818;50.860;4.648;2023-05-18T00:18:22;7.03;;;1.23;;
9559;SDS011;4818;50.860;4.648;2023-05-18T00:20:55;6.97;;;1.75;;
9559;SDS011;4818;50.860;4.648;2023-05-18T00:23:30;10.43;;;2.08;;
9559;SDS011;4818;50.860;4.648;2023-05-18T00:26:00;17.63;;;1.90;;
9559;SDS011;4818;50.860;4.648;2023-05-18T00:28:27;14.15;;;3.53;;
9559;SDS011;4818;50.860;4.648;2023-05-18T00:30:53;7.47;;;1.98;;
9559;SDS011;4818;50.860;4.648;2023-05-18T00:33:20;5.75;;;1.30;;
9559;SDS011;4818;50.860;4.648;2023-05-18T00:35:46;10.73;;;2.47;;
9559;SDS011;4818;50.860;4.648;2023-05-18T00:38:13;6.70;;;1.92;;
9559;SDS011;4818;50.860;4.648;2023-05-18T00:40:39;12.20;;;1.90;;
9559;SDS011;4818;50.860;4.648;2023-05-18T00:43:06;6.50;;;1.30;;
9559;SDS011;4818;50.860;4.648;2023-05-18T00:45:32;5.00;;;1.20;;
9559;SDS011;4818;50.860;4.648;2023-05-18T00:47:58;7.32;;;1.50;;
9559;SDS011;4818;50.860;4.648;2023-05-18T00:50:24;11.57;;;1.52;;
9559;SDS011;4818;50.860;4.648;2023-05-18T00:52:50;10.30;;;1.73;;
9559;SDS011;4818;50.860;4.648;2023-05-18T00:55:17;6.55;;;1.40;;
9559;SDS011;4818;50.860;4.648;2023-05-18T00:57:43;6.13;;;1.90;;
9559;SDS011;4818;50.860;4.648;2023-05-18T01:00:12;10.70;;;1.58;;
9559;SDS011;4818;50.860;4.648;2023-05-18T01:02:39;12.15;;;2.35;;
9559;SDS011;4818;50.860;4.648;2023-05-18T01:05:10;8.80;;;2.17;;
9559;SDS011;4818;50.860;4.648;2023-05-18T01:07:37;9.00;;;1.85;;
9559;SDS011;4818;50.860;4.648;2023-05-18T01:10:06;10.50;;;1.73;;
9559;SDS011;4818;50.860;4.648;2023-05-18T01:12:39;5.80;;;1.83;;
9559;SDS011;4818;50.860;4.648;2023-05-18T01:15:12;5.82;;;1.67;;
9559;SDS011;4818;50.860;4.648;2023-05-18T01:28:07;8.20;;;1.42;;
9559;SDS011;4818;50.860;4.648;2023-05-18T01:30:35;6.03;;;1.60;;
9559;SDS011;4818;50.860;4.648;2023-05-18T01:33:06;9.52;;;1.83;;
9559;SDS011;4818;50.860;4.648;2023-05-18T01:35:33;9.27;;;1.73;;
9559;SDS011;4818;50.860;4.648;2023-05-18T01:38:00;9.70;;;2.00;;
9559;SDS011;4818;50.860;4.648;2023-05-18T01:40:26;7.07;;;1.38;;
9559;SDS011;4818;50.860;4.648;2023-05-18T01:42:55;12.55;;;2.17;;
9559;SDS011;4818;50.860;4.648;2023-05-18T01:45:26;7.03;;;1.35;;
9559;SDS011;4818;50.860;4.648;2023-05-18T01:47:55;10.65;;;1.83;;
9559;SDS011;4818;50.860;4.648;2023-05-18T01:50:27;11.23;;;1.85;;
9559;SDS011;4818;50.860;4.648;2023-05-18T01:53:15;9.88;;;1.88;;
9559;SDS011;4818;50.860;4.648;2023-05-18T01:55:45;13.00;;;1.33;;
9559;SDS011;4818;50.860;4.648;2023-05-18T01:58:12;8.45;;;1.80;;
9559;SDS011;4818;50.860;4.648;2023-05-18T02:00:39;7.78;;;1.80;;
9559;SDS011;4818;50.860;4.648;2023-05-18T02:03:05;8.00;;;2.13;;
9559;SDS011;4818;50.860;4.648;2023-05-18T02:05:32;8.85;;;1.58;;
9559;SDS011;4818;50.860;4.648;2023-05-18T02:07:58;7.60;;;2.03;;
9559;SDS011;4818;50.860;4.648;2023-05-18T02:10:24;5.35;;;1.30;;
9559;SDS011;4818;50.860;4.648;2023-05-18T02:12:50;9.95;;;1.75;;
9559;SDS011;4818;50.860;4.648;2023-05-18T02:15:17;12.30;;;2.05;;
9559;SDS011;4818;50.860;4.648;2023-05-18T02:17:43;10.18;;;2.17;;
9559;SDS011;4818;50.860;4.648;2023-05-18T02:20:10;10.32;;;2.13;;
9559;SDS011;4818;50.860;4.648;2023-05-18T02:22:36;6.95;;;1.60;;
9559;SDS011;4818;50.860;4.648;2023-05-18T02:25:02;6.18;;;1.73;;
9559;SDS011;4818;50.860;4.648;2023-05-18T02:27:31;6.47;;;1.48;;
9559;SDS011;4818;50.860;4.648;2023-05-18T02:29:59;7.68;;;1.60;;
9559;SDS011;4818;50.860;4.648;2023-05-18T02:32:27;5.95;;;1.77;;
9559;SDS011;4818;50.860;4.648;2023-05-18T02:34:53;8.13;;;2.15;;
9559;SDS011;4818;50.860;4.648;2023-05-18T02:37:19;8.38;;;1.88;;
9559;SDS011;4818;50.860;4.648;2023-05-18T02:39:47;11.02;;;2.22;;
9559;SDS011;4818;50.860;4.648;2023-05-18T02:42:13;10.98;;;2.22;;
9559;SDS011;4818;50.860;4.648;2023-05-18T02:44:39;8.07;;;1.83;;
9559;SDS011;4818;50.860;4.648;2023-05-18T02:47:06;8.65;;;1.83;;
9559;SDS011;4818;50.860;4.648;2023-05-18T02:49:32;9.57;;;2.08;;
9559;SDS011;4818;50.860;4.648;2023-05-18T02:51:58;8.73;;;1.88;;
9559;SDS011;4818;50.860;4.648;2023-05-18T02:54:24;9.10;;;1.58;;
9559;SDS011;4818;50.860;4.648;2023-05-18T02:56:50;11.80;;;2.10;;
9559;SDS011;4818;50.860;4.648;2023-05-18T02:59:20;5.03;;;1.48;;
9559;SDS011;4818;50.860;4.648;2023-05-18T03:01:46;11.90;;;2.33;;
9559;SDS011;4818;50.860;4.648;2023-05-18T03:04:12;9.85;;;1.80;;
9559;SDS011;4818;50.860;4.648;2023-05-18T03:06:40;7.70;;;1.70;;
9559;SDS011;4818;50.860;4.648;2023-05-18T03:09:06;8.93;;;2.42;;
9559;SDS011;4818;50.860;4.648;2023-05-18T03:11:33;11.80;;;2.33;;
9559;SDS011;4818;50.860;4.648;2023-05-18T03:13:59;13.60;;;2.78;;
9559;SDS011;4818;50.860;4.648;2023-05-18T03:16:25;8.25;;;2.13;;
9559;SDS011;4818;50.860;4.648;2023-05-18T03:18:52;8.95;;;1.90;;
9559;SDS011;4818;50.860;4.648;2023-05-18T03:21:19;5.38;;;1.70;;
9559;SDS011;4818;50.860;4.648;2023-05-18T03:23:46;10.60;;;2.20;;
9559;SDS011;4818;50.860;4.648;2023-05-18T03:26:12;11.88;;;2.50;;
9559;SDS011;4818;50.860;4.648;2023-05-18T03:28:40;13.48;;;1.95;;
9559;SDS011;4818;50.860;4.648;2023-05-18T03:31:06;7.75;;;2.05;;
9559;SDS011;4818;50.860;4.648;2023-05-18T03:33:32;5.68;;;2.25;;
9559;SDS011;4818;50.860;4.648;2023-05-18T03:36:01;6.90;;;1.92;;
9559;SDS011;4818;50.860;4.648;2023-05-18T03:38:27;14.80;;;2.55;;
9559;SDS011;4818;50.860;4.648;2023-05-18T03:40:53;11.90;;;2.15;;
9559;SDS011;4818;50.860;4.648;2023-05-18T03:43:19;6.47;;;1.83;;
9559;SDS011;4818;50.860;4.648;2023-05-18T03:45:49;8.35;;;2.33;;
9559;SDS011;4818;50.860;4.648;2023-05-18T03:48:15;9.05;;;2.67;;
9559;SDS011;4818;50.860;4.648;2023-05-18T03:50:41;12.77;;;2.58;;
9559;SDS011;4818;50.860;4.648;2023-05-18T03:53:08;10.05;;;1.95;;
9559;SDS011;4818;50.860;4.648;2023-05-18T03:55:34;10.13;;;2.47;;
9559;SDS011;4818;50.860;4.648;2023-05-18T03:58:00;12.00;;;2.60;;
9559;SDS011;4818;50.860;4.648;2023-05-18T04:00:27;9.48;;;2.50;;
9559;SDS011;4818;50.860;4.648;2023-05-18T04:02:54;7.20;;;2.13;;
9559;SDS011;4818;50.860;4.648;2023-05-18T04:05:20;6.78;;;2.53;;
9559;SDS011;4818;50.860;4.648;2023-05-18T04:07:47;8.48;;;2.50;;
9559;SDS011;4818;50.860;4.648;2023-05-18T04:10:14;7.25;;;1.77;;
9559;SDS011;4818;50.860;4.648;2023-05-18T04:12:41;7.88;;;2.20;;
9559;SDS011;4818;50.860;4.648;2023-05-18T04:15:07;8.35;;;2.47;;
9559;SDS011;4818;50.860;4.648;2023-05-18T04:17:34;9.18;;;2.72;;
9559;SDS011;4818;50.860;4.648;2023-05-18T04:20:00;10.27;;;2.40;;
9559;SDS011;4818;50.860;4.648;2023-05-18T04:22:38;6.60;;;2.40;;
9559;SDS011;4818;50.860;4.648;2023-05-18T04:25:07;12.73;;;3.17;;
9559;SDS011;4818;50.860;4.648;2023-05-18T04:27:36;7.80;;;2.38;;
9559;SDS011;4818;50.860;4.648;2023-05-18T04:30:02;11.50;;;2.22;;
9559;SDS011;4818;50.860;4.648;2023-05-18T04:32:29;10.32;;;2.50;;
9559;SDS011;4818;50.860;4.648;2023-05-18T04:35:02;12.93;;;2.47;;
9559;SDS011;4818;50.860;4.648;2023-05-18T04:37:28;13.55;;;2.67;;
9559;SDS011;4818;50.860;4.648;2023-05-18T04:39:54;16.02;;;2.72;;
9559;SDS011;4818;50.860;4.648;2023-05-18T04:42:22;17.20;;;2.50;;
9559;SDS011;4818;50.860;4.648;2023-05-18T04:44:51;8.20;;;2.00;;
9559;SDS011;4818;50.860;4.648;2023-05-18T04:47:18;12.75;;;2.60;;
9559;SDS011;4818;50.860;4.648;2023-05-18T04:52:16;8.07;;;2.25;;
9559;SDS011;4818;50.860;4.648;2023-05-18T04:54:43;15.45;;;3.63;;
9559;SDS011;4818;50.860;4.648;2023-05-18T04:57:09;6.57;;;2.10;;
9559;SDS011;4818;50.860;4.648;2023-05-18T04:59:37;7.57;;;2.58;;
9559;SDS011;4818;50.860;4.648;2023-05-18T05:02:03;13.38;;;3.30;;
9559;SDS011;4818;50.860;4.648;2023-05-18T05:04:30;8.52;;;2.08;;
9559;SDS011;4818;50.860;4.648;2023-05-18T05:06:57;14.98;;;3.15;;
9559;SDS011;4818;50.860;4.648;2023-05-18T05:09:24;13.02;;;3.08;;
9559;SDS011;4818;50.860;4.648;2023-05-18T05:11:50;15.73;;;3.63;;
9559;SDS011;4818;50.860;4.648;2023-05-18T05:14:16;17.58;;;3.55;;
9559;SDS011;4818;50.860;4.648;2023-05-18T05:16:42;6.15;;;1.83;;
9559;SDS011;4818;50.860;4.648;2023-05-18T05:19:08;12.15;;;2.80;;
9559;SDS011;4818;50.860;4.648;2023-05-18T05:21:35;8.88;;;2.60;;
9559;SDS011;4818;50.860;4.648;2023-05-18T05:24:01;7.55;;;2.40;;
9559;SDS011;4818;50.860;4.648;2023-05-18T05:26:30;16.17;;;2.90;;
9559;SDS011;4818;50.860;4.648;2023-05-18T05:28:56;11.02;;;3.13;;
9559;SDS011;4818;50.860;4.648;2023-05-18T05:31:22;9.32;;;3.35;;
9559;SDS011;4818;50.860;4.648;2023-05-18T05:33:48;9.82;;;2.47;;
9559;SDS011;4818;50.860;4.648;2023-05-18T05:36:14;9.18;;;2.65;;
9559;SDS011;4818;50.860;4.648;2023-05-18T05:38:40;11.02;;;2.63;;
9559;SDS011;4818;50.860;4.648;2023-05-18T05:41:06;14.52;;;3.00;;
9559;SDS011;4818;50.860;4.648;2023-05-18T05:43:32;9.98;;;3.28;;
9559;SDS011;4818;50.860;4.648;2023-05-18T05:45:59;6.18;;;1.98;;
9559;SDS011;4818;50.860;4.648;2023-05-18T05:48:25;10.18;;;2.92;;
9559;SDS011;4818;50.860;4.648;2023-05-18T05:50:51;9.93;;;3.05;;
9559;SDS011;4818;50.860;4.648;2023-05-18T05:53:17;5.90;;;2.50;;
9559;SDS011;4818;50.860;4.648;2023-05-18T05:55:44;12.63;;;3.25;;
9559;SDS011;4818;50.860;4.648;2023-05-18T05:58:12;12.82;;;2.38;;
9559;SDS011;4818;50.860;4.648;2023-05-18T06:00:39;8.65;;;2.17;;
9559;SDS011;4818;50.860;4.648;2023-05-18T06:03:07;8.38;;;2.42;;
9559;SDS011;4818;50.860;4.648;2023-05-18T06:05:33;8.63;;;2.53;;
9559;SDS011;4818;50.860;4.648;2023-05-18T06:07:59;11.65;;;2.22;;
9559;SDS011;4818;50.860;4.648;2023-05-18T06:10:25;6.43;;;2.20;;
9559;SDS011;4818;50.860;4.648;2023-05-18T06:12:52;9.57;;;2.33;;
9559;SDS011;4818;50.860;4.648;2023-05-18T06:15:18;8.30;;;2.63;;
9559;SDS011;4818;50.860;4.648;2023-05-18T06:17:44;9.10;;;1.70;;
9559;SDS011;4818;50.860;4.648;2023-05-18T06:20:11;5.05;;;2.33;;
9559;SDS011;4818;50.860;4.648;2023-05-18T06:22:37;9.45;;;3.03;;
9559;SDS011;4818;50.860;4.648;2023-05-18T06:25:04;5.05;;;1.45;;
9559;SDS011;4818;50.860;4.648;2023-05-18T06:27:30;12.85;;;2.65;;
9559;SDS011;4818;50.860;4.648;2023-05-18T06:29:56;8.35;;;2.53;;
9559;SDS011;4818;50.860;4.648;2023-05-18T06:32:22;8.38;;;2.13;;
9559;SDS011;4818;50.860;4.648;2023-05-18T06:34:48;9.07;;;2.40;;
9559;SDS011;4818;50.860;4.648;2023-05-18T06:37:14;4.75;;;1.58;;
9559;SDS011;4818;50.860;4.648;2023-05-18T06:39:41;7.55;;;2.28;;
9559;SDS011;4818;50.860;4.648;2023-05-18T06:42:07;10.25;;;1.98;;
9559;SDS011;4818;50.860;4.648;2023-05-18T06:44:33;6.90;;;1.77;;
9559;SDS011;4818;50.860;4.648;2023-05-18T06:47:00;8.65;;;2.67;;
9559;SDS011;4818;50.860;4.648;2023-05-18T06:49:26;11.07;;;3.20;;
9559;SDS011;4818;50.860;4.648;2023-05-18T06:51:52;11.02;;;2.20;;
9559;SDS011;4818;50.860;4.648;2023-05-18T06:54:18;14.98;;;2.42;;
9559;SDS011;4818;50.860;4.648;2023-05-18T06:56:44;10.32;;;2.33;;
9559;SDS011;4818;50.860;4.648;2023-05-18T06:59:11;8.65;;;2.53;;
9559;SDS011;4818;50.860;4.648;2023-05-18T07:01:37;11.57;;;2.17;;
9559;SDS011;4818;50.860;4.648;2023-05-18T07:04:03;6.22;;;2.38;;
9559;SDS011;4818;50.860;4.648;2023-05-18T07:06:29;11.20;;;2.72;;
9559;SDS011;4818;50.860;4.648;2023-05-18T07:08:56;9.90;;;2.65;;
9559;SDS011;4818;50.860;4.648;2023-05-18T07:11:22;13.15;;;2.80;;
9559;SDS011;4818;50.860;4.648;2023-05-18T07:13:48;4.70;;;2.05;;
9559;SDS011;4818;50.860;4.648;2023-05-18T07:16:14;13.05;;;2.78;;
9559;SDS011;4818;50.860;4.648;2023-05-18T07:18:40;8.80;;;2.50;;
9559;SDS011;4818;50.860;4.648;2023-05-18T07:21:06;7.57;;;1.75;;
9559;SDS011;4818;50.860;4.648;2023-05-18T07:23:33;10.40;;;1.98;;
9559;SDS011;4818;50.860;4.648;2023-05-18T07:25:59;6.75;;;2.55;;
9559;SDS011;4818;50.860;4.648;2023-05-18T07:28:25;7.05;;;2.47;;
9559;SDS011;4818;50.860;4.648;2023-05-18T07:30:51;12.15;;;2.30;;
9559;SDS011;4818;50.860;4.648;2023-05-18T07:33:17;13.18;;;2.00;;
9559;SDS011;4818;50.860;4.648;2023-05-18T07:35:43;11.38;;;2.60;;
9559;SDS011;4818;50.860;4.648;2023-05-18T07:38:10;12.10;;;2.60;;
9559;SDS011;4818;50.860;4.648;2023-05-18T07:40:36;10.50;;;2.33;;
9559;SDS011;4818;50.860;4.648;2023-05-18T07:43:02;9.35;;;2.35;;
9559;SDS011;4818;50.860;4.648;2023-05-18T07:45:28;6.53;;;2.22;;
9559;SDS011;4818;50.860;4.648;2023-05-18T07:47:54;11.27;;;2.53;;
9559;SDS011;4818;50.860;4.648;2023-05-18T07:50:21;11.05;;;2.50;;
9559;SDS011;4818;50.860;4.648;2023-05-18T07:52:47;10.48;;;2.42;;
9559;SDS011;4818;50.860;4.648;2023-05-18T07:55:13;8.10;;;2.10;;
9559;SDS011;4818;50.860;4.648;2023-05-18T07:57:40;9.88;;;2.38;;
9559;SDS011;4818;50.860;4.648;2023-05-18T08:00:06;8.65;;;2.15;;
9559;SDS011;4818;50.860;4.648;2023-05-18T08:02:34;8.05;;;2.35;;
9559;SDS011;4818;50.860;4.648;2023-05-18T08:05:00;9.60;;;2.45;;
9559;SDS011;4818;50.860;4.648;2023-05-18T08:07:27;10.02;;;2.65;;
9559;SDS011;4818;50.860;4.648;2023-05-18T08:09:54;8.73;;;3.33;;
9559;SDS011;4818;50.860;4.648;2023-05-18T08:12:21;8.27;;;3.17;;
9559;SDS011;4818;50.860;4.648;2023-05-18T08:14:47;10.85;;;2.78;;
9559;SDS011;4818;50.860;4.648;2023-05-18T08:17:13;11.38;;;2.65;;
9559;SDS011;4818;50.860;4.648;2023-05-18T08:19:39;10.13;;;2.78;;
9559;SDS011;4818;50.860;4.648;2023-05-18T08:22:06;10.98;;;3.75;;
9559;SDS011;4818;50.860;4.648;2023-05-18T08:24:32;10.00;;;2.88;;
9559;SDS011;4818;50.860;4.648;2023-05-18T08:26:59;8.98;;;3.15;;
9559;SDS011;4818;50.860;4.648;2023-05-18T08:29:27;13.80;;;2.97;;
9559;SDS011;4818;50.860;4.648;2023-05-18T08:31:53;4.93;;;2.20;;
9559;SDS011;4818;50.860;4.648;2023-05-18T08:34:20;8.02;;;2.70;;
9559;SDS011;4818;50.860;4.648;2023-05-18T08:36:48;8.75;;;2.83;;
9559;SDS011;4818;50.860;4.648;2023-05-18T08:39:14;9.25;;;2.85;;
9559;SDS011;4818;50.860;4.648;2023-05-18T08:44:19;7.50;;;2.70;;
9559;SDS011;4818;50.860;4.648;2023-05-18T08:46:45;11.40;;;2.88;;
9559;SDS011;4818;50.860;4.648;2023-05-18T08:49:18;15.43;;;3.10;;
9559;SDS011;4818;50.860;4.648;2023-05-18T08:51:46;5.65;;;2.33;;
9559;SDS011;4818;50.860;4.648;2023-05-18T08:54:18;10.00;;;2.60;;
9559;SDS011;4818;50.860;4.648;2023-05-18T08:56:45;8.95;;;3.17;;
9559;SDS011;4818;50.860;4.648;2023-05-18T08:59:11;10.85;;;3.45;;
9559;SDS011;4818;50.860;4.648;2023-05-18T09:01:39;10.73;;;2.70;;
9559;SDS011;4818;50.860;4.648;2023-05-18T09:04:05;14.25;;;3.20;;
9559;SDS011;4818;50.860;4.648;2023-05-18T09:06:32;7.35;;;2.63;;
9559;SDS011;4818;50.860;4.648;2023-05-18T09:08:59;9.95;;;2.60;;
9559;SDS011;4818;50.860;4.648;2023-05-18T09:11:28;10.50;;;2.97;;
9559;SDS011;4818;50.860;4.648;2023-05-18T09:13:55;7.50;;;2.33;;
9559;SDS011;4818;50.860;4.648;2023-05-18T09:16:22;8.82;;;2.85;;
9559;SDS011;4818;50.860;4.648;2023-05-18T09:18:51;6.00;;;2.03;;
9559;SDS011;4818;50.860;4.648;2023-05-18T09:21:18;9.57;;;2.35;;
9559;SDS011;4818;50.860;4.648;2023-05-18T09:23:46;7.30;;;2.25;;
9559;SDS011;4818;50.860;4.648;2023-05-18T09:26:12;8.10;;;2.72;;
9559;SDS011;4818;50.860;4.648;2023-05-18T09:28:41;8.57;;;2.35;;
9559;SDS011;4818;50.860;4.648;2023-05-18T09:33:36;9.13;;;2.90;;
9559;SDS011;4818;50.860;4.648;2023-05-18T09:36:06;9.88;;;2.33;;
9559;SDS011;4818;50.860;4.648;2023-05-18T09:38:37;10.45;;;2.65;;
9559;SDS011;4818;50.860;4.648;2023-05-18T09:41:03;8.38;;;2.33;;
9559;SDS011;4818;50.860;4.648;2023-05-18T09:43:34;7.45;;;2.35;;
9559;SDS011;4818;50.860;4.648;2023-05-18T09:46:04;7.95;;;1.92;;
9559;SDS011;4818;50.860;4.648;2023-05-18T09:48:30;10.82;;;2.80;;
9559;SDS011;4818;50.860;4.648;2023-05-18T09:51:00;7.20;;;2.33;;
9559;SDS011;4818;50.860;4.648;2023-05-18T09:53:26;5.97;;;1.58;;
9559;SDS011;4818;50.860;4.648;2023-05-18T09:55:52;7.03;;;2.20;;
9559;SDS011;4818;50.860;4.648;2023-05-18T09:58:18;6.53;;;2.10;;
9559;SDS011;4818;50.860;4.648;2023-05-18T10:00:48;5.38;;;1.58;;
9559;SDS011;4818;50.860;4.648;2023-05-18T10:03:21;7.63;;;1.42;;
9559;SDS011;4818;50.860;4.648;2023-05-18T10:05:48;10.52;;;1.92;;
9559;SDS011;4818;50.860;4.648;2023-05-18T10:08:14;6.50;;;1.23;;
9559;SDS011;4818;50.860;4.648;2023-05-18T10:10:41;6.20;;;1.27;;
9559;SDS011;4818;50.860;4.648;2023-05-18T10:13:08;3.95;;;1.35;;
9559;SDS011;4818;50.860;4.648;2023-05-18T10:15:44;5.38;;;1.00;;
9559;SDS011;4818;50.860;4.648;2023-05-18T10:18:11;3.75;;;1.10;;
9559;SDS011;4818;50.860;4.648;2023-05-18T10:20:37;6.93;;;1.63;;
9559;SDS011;4818;50.860;4.648;2023-05-18T10:23:04;3.45;;;0.88;;
9559;SDS011;4818;50.860;4.648;2023-05-18T10:25:30;6.38;;;1.10;;
9559;SDS011;4818;50.860;4.648;2023-05-18T10:27:59;7.60;;;1.40;;
9559;SDS011;4818;50.860;4.648;2023-05-18T10:30:26;6.00;;;1.02;;
9559;SDS011;4818;50.860;4.648;2023-05-18T10:32:52;5.93;;;1.50;;
9559;SDS011;4818;50.860;4.648;2023-05-18T10:35:21;10.50;;;1.75;;
9559;SDS011;4818;50.860;4.648;2023-05-18T10:37:48;4.30;;;0.93;;
9559;SDS011;4818;50.860;4.648;2023-05-18T10:40:16;7.90;;;1.20;;
9559;SDS011;4818;50.860;4.648;2023-05-18T10:42:43;5.38;;;1.58;;
9559;SDS011;4818;50.860;4.648;2023-05-18T10:45:13;10.52;;;1.50;;
9559;SDS011;4818;50.860;4.648;2023-05-18T10:47:40;5.20;;;1.10;;
9559;SDS011;4818;50.860;4.648;2023-05-18T10:50:08;6.50;;;1.55;;
9559;SDS011;4818;50.860;4.648;2023-05-18T10:52:35;7.25;;;1.60;;
9559;SDS011;4818;50.860;4.648;2023-05-18T10:55:01;5.45;;;1.40;;
9559;SDS011;4818;50.860;4.648;2023-05-18T10:57:38;4.82;;;1.30;;
9559;SDS011;4818;50.860;4.648;2023-05-18T11:00:06;5.50;;;1.33;;
9559;SDS011;4818;50.860;4.648;2023-05-18T11:02:33;5.95;;;1.10;;
9559;SDS011;4818;50.860;4.648;2023-05-18T11:05:00;4.90;;;1.10;;
9559;SDS011;4818;50.860;4.648;2023-05-18T11:07:29;4.82;;;1.35;;
9559;SDS011;4818;50.860;4.648;2023-05-18T11:09:58;7.13;;;1.33;;
9559;SDS011;4818;50.860;4.648;2023-05-18T11:12:25;3.80;;;1.10;;
9559;SDS011;4818;50.860;4.648;2023-05-18T11:14:52;7.50;;;1.30;;
9559;SDS011;4818;50.860;4.648;2023-05-18T11:17:24;4.05;;;1.17;;
9559;SDS011;4818;50.860;4.648;2023-05-18T11:27:51;4.70;;;0.98;;
9559;SDS011;4818;50.860;4.648;2023-05-18T11:30:43;7.40;;;1.55;;
9559;SDS011;4818;50.860;4.648;2023-05-18T11:33:13;6.32;;;1.30;;
9559;SDS011;4818;50.860;4.648;2023-05-18T11:38:25;5.32;;;1.08;;
9559;SDS011;4818;50.860;4.648;2023-05-18T11:40:52;4.40;;;1.13;;
9559;SDS011;4818;50.860;4.648;2023-05-18T11:43:21;4.70;;;1.38;;
9559;SDS011;4818;50.860;4.648;2023-05-18T11:45:51;7.15;;;1.50;;
9559;SDS011;4818;50.860;4.648;2023-05-18T11:48:21;8.27;;;1.10;;
9559;SDS011;4818;50.860;4.648;2023-05-18T11:50:48;6.63;;;1.55;;
9559;SDS011;4818;50.860;4.648;2023-05-18T11:53:15;6.28;;;1.27;;
9559;SDS011;4818;50.860;4.648;2023-05-18T11:55:41;7.63;;;1.77;;
9559;SDS011;4818;50.860;4.648;2023-05-18T11:58:08;7.55;;;1.88;;
9559;SDS011;4818;50.860;4.648;2023-05-18T12:00:35;8.90;;;2.25;;
9559;SDS011;4818;50.860;4.648;2023-05-18T12:03:01;3.42;;;1.52;;
9559;SDS011;4818;50.860;4.648;2023-05-18T12:05:31;8.85;;;2.20;;
9559;SDS011;4818;50.860;4.648;2023-05-18T12:08:00;6.70;;;2.42;;
9559;SDS011;4818;50.860;4.648;2023-05-18T12:10:27;6.43;;;2.00;;
9559;SDS011;4818;50.860;4.648;2023-05-18T12:12:54;9.00;;;1.90;;
9559;SDS011;4818;50.860;4.648;2023-05-18T12:15:22;6.13;;;1.60;;
9559;SDS011;4818;50.860;4.648;2023-05-18T12:17:49;6.10;;;1.80;;
9559;SDS011;4818;50.860;4.648;2023-05-18T12:20:20;5.15;;;1.58;;
9559;SDS011;4818;50.860;4.648;2023-05-18T12:22:47;6.30;;;1.65;;
9559;SDS011;4818;50.860;4.648;2023-05-18T12:25:17;7.43;;;1.73;;
9559;SDS011;4818;50.860;4.648;2023-05-18T12:27:44;5.50;;;1.20;;
9559;SDS011;4818;50.860;4.648;2023-05-18T12:30:18;8.82;;;2.13;;
9559;SDS011;4818;50.860;4.648;2023-05-18T12:35:11;3.53;;;1.90;;
9559;SDS011;4818;50.860;4.648;2023-05-18T12:37:41;5.72;;;1.70;;
9559;SDS011;4818;50.860;4.648;2023-05-18T12:40:08;5.88;;;1.92;;
9559;SDS011;4818;50.860;4.648;2023-05-18T12:42:34;7.20;;;2.35;;
9559;SDS011;4818;50.860;4.648;2023-05-18T12:45:00;8.85;;;2.33;;
9559;SDS011;4818;50.860;4.648;2023-05-18T12:47:27;9.50;;;2.05;;
9559;SDS011;4818;50.860;4.648;2023-05-18T12:49:55;7.68;;;2.40;;
9559;SDS011;4818;50.860;4.648;2023-05-18T12:52:21;7.68;;;1.95;;
9559;SDS011;4818;50.860;4.648;2023-05-18T12:54:48;7.00;;;2.00;;
9559;SDS011;4818;50.860;4.648;2023-05-18T12:57:18;15.05;;;2.38;;
9559;SDS011;4818;50.860;4.648;2023-05-18T12:59:48;6.65;;;2.05;;
9559;SDS011;4818;50.860;4.648;2023-05-18T13:02:27;5.57;;;1.65;;
9559;SDS011;4818;50.860;4.648;2023-05-18T13:07:20;8.73;;;2.95;;
9559;SDS011;4818;50.860;4.648;2023-05-18T13:09:46;7.43;;;2.17;;
9559;SDS011;4818;50.860;4.648;2023-05-18T13:12:13;9.00;;;2.95;;
9559;SDS011;4818;50.860;4.648;2023-05-18T13:14:39;6.63;;;2.97;;
9559;SDS011;4818;50.860;4.648;2023-05-18T13:17:05;9.45;;;2.35;;
9559;SDS011;4818;50.860;4.648;2023-05-18T13:19:36;9.85;;;2.53;;
9559;SDS011;4818;50.860;4.648;2023-05-18T13:22:02;8.45;;;2.38;;
9559;SDS011;4818;50.860;4.648;2023-05-18T13:24:28;5.28;;;2.50;;
9559;SDS011;4818;50.860;4.648;2023-05-18T13:26:56;13.23;;;3.08;;
9559;SDS011;4818;50.860;4.648;2023-05-18T13:29:22;8.23;;;2.00;;
9559;SDS011;4818;50.860;4.648;2023-05-18T13:31:48;6.47;;;1.92;;
9559;SDS011;4818;50.860;4.648;2023-05-18T13:34:14;5.97;;;2.25;;
9559;SDS011;4818;50.860;4.648;2023-05-18T13:36:40;13.85;;;2.88;;
9559;SDS011;4818;50.860;4.648;2023-05-18T13:39:06;8.77;;;2.15;;
9559;SDS011;4818;50.860;4.648;2023-05-18T13:41:33;10.90;;;2.05;;
9559;SDS011;4818;50.860;4.648;2023-05-18T13:44:00;3.67;;;1.80;;
9559;SDS011;4818;50.860;4.648;2023-05-18T13:46:26;7.07;;;1.63;;
9559;SDS011;4818;50.860;4.648;2023-05-18T13:48:52;8.38;;;2.22;;
9559;SDS011;4818;50.860;4.648;2023-05-18T13:51:18;6.65;;;2.25;;
9559;SDS011;4818;50.860;4.648;2023-05-18T13:53:44;12.73;;;1.83;;
9559;SDS011;4818;50.860;4.648;2023-05-18T13:56:10;9.80;;;1.83;;
9559;SDS011;4818;50.860;4.648;2023-05-18T13:58:37;6.70;;;1.63;;
9559;SDS011;4818;50.860;4.648;2023-05-18T14:01:03;5.22;;;1.65;;
9559;SDS011;4818;50.860;4.648;2023-05-18T14:03:31;7.60;;;1.58;;
9559;SDS011;4818;50.860;4.648;2023-05-18T14:05:58;9.27;;;1.50;;
9559;SDS011;4818;50.860;4.648;2023-05-18T14:08:24;10.05;;;2.05;;
9559;SDS011;4818;50.860;4.648;2023-05-18T14:10:50;11.60;;;1.75;;
9559;SDS011;4818;50.860;4.648;2023-05-18T14:13:16;5.55;;;1.73;;
9559;SDS011;4818;50.860;4.648;2023-05-18T14:15:42;7.05;;;1.63;;
9559;SDS011;4818;50.860;4.648;2023-05-18T14:18:08;4.10;;;1.85;;
9559;SDS011;4818;50.860;4.648;2023-05-18T14:20:34;7.72;;;1.15;;
9559;SDS011;4818;50.860;4.648;2023-05-18T14:23:01;6.32;;;1.50;;
9559;SDS011;4818;50.860;4.648;2023-05-18T14:25:28;5.30;;;1.20;;
9559;SDS011;4818;50.860;4.648;2023-05-18T14:27:55;10.95;;;1.88;;
9559;SDS011;4818;50.860;4.648;2023-05-18T14:30:21;5.80;;;1.98;;
9559;SDS011;4818;50.860;4.648;2023-05-18T14:32:47;13.07;;;1.80;;
9559;SDS011;4818;50.860;4.648;2023-05-18T14:35:13;6.18;;;1.65;;
9559;SDS011;4818;50.860;4.648;2023-05-18T14:37:40;6.00;;;1.52;;
9559;SDS011;4818;50.860;4.648;2023-05-18T14:40:06;8.30;;;2.28;;
9559;SDS011;4818;50.860;4.648;2023-05-18T14:42:32;7.20;;;1.30;;
9559;SDS011;4818;50.860;4.648;2023-05-18T14:45:00;4.75;;;1.20;;
9559;SDS011;4818;50.860;4.648;2023-05-18T14:47:26;5.97;;;1.05;;
9559;SDS011;4818;50.860;4.648;2023-05-18T14:49:52;6.05;;;1.35;;
9559;SDS011;4818;50.860;4.648;2023-05-18T14:52:19;6.82;;;1.35;;
9559;SDS011;4818;50.860;4.648;2023-05-18T14:54:45;3.60;;;1.02;;
9559;SDS011;4818;50.860;4.648;2023-05-18T14:57:11;6.57;;;1.40;;
9559;SDS011;4818;50.860;4.648;2023-05-18T14:59:37;10.45;;;1.40;;
9559;SDS011;4818;50.860;4.648;2023-05-18T15:02:04;5.90;;;1.50;;
9559;SDS011;4818;50.860;4.648;2023-05-18T15:04:31;9.70;;;0.90;;
9559;SDS011;4818;50.860;4.648;2023-05-18T15:06:58;7.35;;;1.48;;
9559;SDS011;4818;50.860;4.648;2023-05-18T15:09:24;4.88;;;1.85;;
9559;SDS011;4818;50.860;4.648;2023-05-18T15:11:50;5.75;;;1.48;;
9559;SDS011;4818;50.860;4.648;2023-05-18T15:14:16;6.03;;;1.42;;
9559;SDS011;4818;50.860;4.648;2023-05-18T15:16:43;6.32;;;1.10;;
9559;SDS011;4818;50.860;4.648;2023-05-18T15:19:09;9.00;;;1.45;;
9559;SDS011;4818;50.860;4.648;2023-05-18T15:21:35;7.85;;;1.52;;
9559;SDS011;4818;50.860;4.648;2023-05-18T15:24:01;7.70;;;1.30;;
9559;SDS011;4818;50.860;4.648;2023-05-18T15:26:28;5.88;;;1.25;;
9559;SDS011;4818;50.860;4.648;2023-05-18T15:28:54;7.60;;;1.38;;
9559;SDS011;4818;50.860;4.648;2023-05-18T15:31:29;8.82;;;1.20;;
9559;SDS011;4818;50.860;4.648;2023-05-18T15:33:58;5.55;;;1.25;;
9559;SDS011;4818;50.860;4.648;2023-05-18T15:36:24;7.32;;;2.30;;
9559;SDS011;4818;50.860;4.648;2023-05-18T15:38:50;11.45;;;1.58;;
9559;SDS011;4818;50.860;4.648;2023-05-18T15:41:16;9.43;;;1.33;;
9559;SDS011;4818;50.860;4.648;2023-05-18T15:43:43;10.35;;;1.58;;